sensor_id;sensor_type;location;lat;lon;timestamp;temperature;humidity
18779;DHT22;9518;51.720;14.384;2023-04-24T00:01:47;8.90;99.90
18779;DHT22;9518;51.720;14.384;2023-04-24T00:04:14;8.90;99.90
18779;DHT22;9518;51.720;14.384;2023-04-24T00:06:43;8.90;99.90
18779;DHT22;9518;51.720;14.384;2023-04-24T00:09:15;8.80;99.90
18779;DHT22;9518;51.720;14.384;2023-04-24T00:11:42;8.70;99.90
18779;DHT22;9518;51.720;14.384;2023-04-24T00:14:09;8.70;99.90
18779;DHT22;9518;51.720;14.384;2023-04-24T00:16:38;8.60;99.90
18779;DHT22;9518;51.720;14.384;2023-04-24T00:19:05;8.60;99.90
18779;DHT22;9518;51.720;14.384;2023-04-24T00:21:32;8.60;99.90
18779;DHT22;9518;51.720;14.384;2023-04-24T00:24:00;8.60;99.90
18779;DHT22;9518;51.720;14.384;2023-04-24T00:26:27;8.60;99.90
18779;DHT22;9518;51.720;14.384;2023-04-24T00:28:54;8.70;99.90
18779;DHT22;9518;51.720;14.384;2023-04-24T00:31:21;8.70;99.90
18779;DHT22;9518;51.720;14.384;2023-04-24T00:33:50;8.70;99.90
18779;DHT22;9518;51.720;14.384;2023-04-24T00:36:17;8.70;99.90
18779;DHT22;9518;51.720;14.384;2023-04-24T00:38:46;8.70;99.90
18779;DHT22;9518;51.720;14.384;2023-04-24T00:41:13;8.70;99.90
18779;DHT22;9518;51.720;14.384;2023-04-24T00:43:41;8.70;99.90
18779;DHT22;9518;51.720;14.384;2023-04-24T00:46:08;8.70;99.90
18779;DHT22;9518;51.720;14.384;2023-04-24T00:48:39;8.60;99.90
18779;DHT22;9518;51.720;14.384;2023-04-24T00:51:07;8.60;99.90
18779;DHT22;9518;51.720;14.384;2023-04-24T00:53:35;8.60;99.90
18779;DHT22;9518;51.720;14.384;2023-04-24T00:56:03;8.50;99.90
18779;DHT22;9518;51.720;14.384;2023-04-24T00:58:32;8.50;99.90
18779;DHT22;9518;51.720;14.384;2023-04-24T01:00:59;8.50;99.90
18779;DHT22;9518;51.720;14.384;2023-04-24T01:03:30;8.40;99.90
18779;DHT22;9518;51.720;14.384;2023-04-24T01:05:58;8.30;99.90
18779;DHT22;9518;51.720;14.384;2023-04-24T01:08:28;8.20;99.90
18779;DHT22;9518;51.720;14.384;2023-04-24T01:10:57;8.10;99.90
18779;DHT22;9518;51.720;14.384;2023-04-24T01:13:24;8.00;99.90
18779;DHT22;9518;51.720;14.384;2023-04-24T01:15:52;8.00;99.90
18779;DHT22;9518;51.720;14.384;2023-04-24T01:18:19;7.90;99.90
18779;DHT22;9518;51.720;14.384;2023-04-24T01:20:50;7.90;99.90
18779;DHT22;9518;51.720;14.384;2023-04-24T01:23:19;7.90;99.90
18779;DHT22;9518;51.720;14.384;2023-04-24T01:25:47;7.90;99.90
18779;DHT22;9518;51.720;14.384;2023-04-24T01:28:15;7.80;99.90
18779;DHT22;9518;51.720;14.384;2023-04-24T01:30:42;7.70;99.90
18779;DHT22;9518;51.720;14.384;2023-04-24T01:33:10;7.70;99.90
18779;DHT22;9518;51.720;14.384;2023-04-24T01:35:37;7.80;99.90
18779;DHT22;9518;51.720;14.384;2023-04-24T01:38:05;7.90;99.90
18779;DHT22;9518;51.720;14.384;2023-04-24T01:40:34;7.90;99.90
18779;DHT22;9518;51.720;14.384;2023-04-24T01:43:02;7.90;99.90
18779;DHT22;9518;51.720;14.384;2023-04-24T01:45:29;8.00;99.90
18779;DHT22;9518;51.720;14.384;2023-04-24T01:47:56;8.00;99.90
18779;DHT22;9518;51.720;14.384;2023-04-24T01:50:24;8.00;99.90
18779;DHT22;9518;51.720;14.384;2023-04-24T01:52:51;8.10;99.90
18779;DHT22;9518;51.720;14.384;2023-04-24T01:55:18;8.10;99.90
18779;DHT22;9518;51.720;14.384;2023-04-24T01:57:47;8.10;99.90
18779;DHT22;9518;51.720;14.384;2023-04-24T02:00:14;8.00;99.90
18779;DHT22;9518;51.720;14.384;2023-04-24T02:02:41;8.00;99.90
18779;DHT22;9518;51.720;14.384;2023-04-24T02:05:09;7.90;99.90
18779;DHT22;9518;51.720;14.384;2023-04-24T02:07:36;7.80;99.90
18779;DHT22;9518;51.720;14.384;2023-04-24T02:10:04;7.80;99.90
18779;DHT22;9518;51.720;14.384;2023-04-24T02:12:32;7.80;99.90
18779;DHT22;9518;51.720;14.384;2023-04-24T02:15:00;7.70;99.90
18779;DHT22;9518;51.720;14.384;2023-04-24T02:17:28;7.60;99.90
18779;DHT22;9518;51.720;14.384;2023-04-24T02:19:56;7.50;99.90
18779;DHT22;9518;51.720;14.384;2023-04-24T02:22:23;7.50;99.90
18779;DHT22;9518;51.720;14.384;2023-04-24T02:24:50;7.40;99.90
18779;DHT22;9518;51.720;14.384;2023-04-24T02:27:17;7.40;99.90
18779;DHT22;9518;51.720;14.384;2023-04-24T02:29:44;7.30;99.90
18779;DHT22;9518;51.720;14.384;2023-04-24T02:32:13;7.30;99.90
18779;DHT22;9518;51.720;14.384;2023-04-24T02:34:41;7.30;99.90
18779;DHT22;9518;51.720;14.384;2023-04-24T02:37:08;7.40;99.90
18779;DHT22;9518;51.720;14.384;2023-04-24T02:39:35;7.40;99.90
18779;DHT22;9518;51.720;14.384;2023-04-24T02:42:02;7.40;99.90
18779;DHT22;9518;51.720;14.384;2023-04-24T02:44:29;7.30;99.90
18779;DHT22;9518;51.720;14.384;2023-04-24T02:46:57;7.40;99.90
18779;DHT22;9518;51.720;14.384;2023-04-24T02:49:25;7.50;99.90
18779;DHT22;9518;51.720;14.384;2023-04-24T02:51:53;7.60;99.90
18779;DHT22;9518;51.720;14.384;2023-04-24T02:54:20;7.70;99.90
18779;DHT22;9518;51.720;14.384;2023-04-24T02:56:47;7.80;99.90
18779;DHT22;9518;51.720;14.384;2023-04-24T02:59:14;7.80;99.90
18779;DHT22;9518;51.720;14.384;2023-04-24T03:01:42;7.80;99.90
18779;DHT22;9518;51.720;14.384;2023-04-24T03:04:09;7.60;99.90
18779;DHT22;9518;51.720;14.384;2023-04-24T03:06:38;7.50;99.90
18779;DHT22;9518;51.720;14.384;2023-04-24T03:09:05;7.50;99.90
18779;DHT22;9518;51.720;14.384;2023-04-24T03:11:33;7.50;99.90
18779;DHT22;9518;51.720;14.384;2023-04-24T03:14:00;7.40;99.90
18779;DHT22;9518;51.720;14.384;2023-04-24T03:16:27;7.40;99.90
18779;DHT22;9518;51.720;14.384;2023-04-24T03:18:55;7.40;99.90
18779;DHT22;9518;51.720;14.384;2023-04-24T03:21:22;7.40;99.90
18779;DHT22;9518;51.720;14.384;2023-04-24T03:23:51;7.40;99.90
18779;DHT22;9518;51.720;14.384;2023-04-24T03:26:18;7.40;99.90
18779;DHT22;9518;51.720;14.384;2023-04-24T03:28:48;7.50;99.90
18779;DHT22;9518;51.720;14.384;2023-04-24T03:31:17;7.60;99.90
18779;DHT22;9518;51.720;14.384;2023-04-24T03:33:44;7.70;99.90
18779;DHT22;9518;51.720;14.384;2023-04-24T03:36:11;7.80;99.90
18779;DHT22;9518;51.720;14.384;2023-04-24T03:38:39;8.00;99.90
18779;DHT22;9518;51.720;14.384;2023-04-24T03:41:08;8.10;99.90
18779;DHT22;9518;51.720;14.384;2023-04-24T03:43:35;8.20;99.90
18779;DHT22;9518;51.720;14.384;2023-04-24T03:46:03;8.30;99.90
18779;DHT22;9518;51.720;14.384;2023-04-24T03:48:33;8.40;99.90
18779;DHT22;9518;51.720;14.384;2023-04-24T03:51:02;8.50;99.90
18779;DHT22;9518;51.720;14.384;2023-04-24T03:53:29;8.60;99.90
18779;DHT22;9518;51.720;14.384;2023-04-24T03:55:56;8.60;99.90
18779;DHT22;9518;51.720;14.384;2023-04-24T03:58:25;8.70;99.90
18779;DHT22;9518;51.720;14.384;2023-04-24T04:00:52;8.80;99.90
18779;DHT22;9518;51.720;14.384;2023-04-24T04:03:19;8.90;99.90
18779;DHT22;9518;51.720;14.384;2023-04-24T04:05:47;8.90;99.90
18779;DHT22;9518;51.720;14.384;2023-04-24T04:08:14;9.00;99.90
18779;DHT22;9518;51.720;14.384;2023-04-24T04:10:41;9.10;99.90
18779;DHT22;9518;51.720;14.384;2023-04-24T04:13:08;9.20;99.90
18779;DHT22;9518;51.720;14.384;2023-04-24T04:15:37;9.20;99.90
18779;DHT22;9518;51.720;14.384;2023-04-24T04:18:04;9.30;99.90
18779;DHT22;9518;51.720;14.384;2023-04-24T04:20:31;9.40;99.90
18779;DHT22;9518;51.720;14.384;2023-04-24T04:22:58;9.40;99.90
18779;DHT22;9518;51.720;14.384;2023-04-24T04:25:25;9.50;99.90
18779;DHT22;9518;51.720;14.384;2023-04-24T04:27:52;9.60;99.90
18779;DHT22;9518;51.720;14.384;2023-04-24T04:30:19;9.70;99.90
18779;DHT22;9518;51.720;14.384;2023-04-24T04:32:48;9.80;99.90
18779;DHT22;9518;51.720;14.384;2023-04-24T04:35:15;10.00;99.90
18779;DHT22;9518;51.720;14.384;2023-04-24T04:37:43;10.10;99.90
18779;DHT22;9518;51.720;14.384;2023-04-24T04:40:11;10.30;99.90
18779;DHT22;9518;51.720;14.384;2023-04-24T04:42:38;10.40;99.90
18779;DHT22;9518;51.720;14.384;2023-04-24T04:45:07;10.60;99.90
18779;DHT22;9518;51.720;14.384;2023-04-24T04:47:38;10.60;99.90
18779;DHT22;9518;51.720;14.384;2023-04-24T04:50:09;10.70;99.90
18779;DHT22;9518;51.720;14.384;2023-04-24T04:52:36;10.80;99.90
18779;DHT22;9518;51.720;14.384;2023-04-24T04:55:04;10.90;99.90
18779;DHT22;9518;51.720;14.384;2023-04-24T04:57:32;11.00;99.90
18779;DHT22;9518;51.720;14.384;2023-04-24T05:00:01;11.10;99.90
18779;DHT22;9518;51.720;14.384;2023-04-24T05:02:30;11.20;99.90
18779;DHT22;9518;51.720;14.384;2023-04-24T05:04:57;11.30;99.90
18779;DHT22;9518;51.720;14.384;2023-04-24T05:07:26;11.40;99.90
18779;DHT22;9518;51.720;14.384;2023-04-24T05:09:54;11.50;99.90
18779;DHT22;9518;51.720;14.384;2023-04-24T05:12:22;11.50;99.90
18779;DHT22;9518;51.720;14.384;2023-04-24T05:14:49;11.60;99.90
18779;DHT22;9518;51.720;14.384;2023-04-24T05:17:16;11.70;99.90
18779;DHT22;9518;51.720;14.384;2023-04-24T05:19:43;11.90;99.90
18779;DHT22;9518;51.720;14.384;2023-04-24T05:22:12;11.90;99.90
18779;DHT22;9518;51.720;14.384;2023-04-24T05:24:40;12.00;99.90
18779;DHT22;9518;51.720;14.384;2023-04-24T05:27:07;12.10;99.90
18779;DHT22;9518;51.720;14.384;2023-04-24T05:29:34;12.10;99.90
18779;DHT22;9518;51.720;14.384;2023-04-24T05:32:02;12.10;99.90
18779;DHT22;9518;51.720;14.384;2023-04-24T05:34:29;12.20;99.90
18779;DHT22;9518;51.720;14.384;2023-04-24T05:36:56;12.30;99.90
18779;DHT22;9518;51.720;14.384;2023-04-24T05:39:23;12.50;99.90
18779;DHT22;9518;51.720;14.384;2023-04-24T05:41:52;12.50;99.90
18779;DHT22;9518;51.720;14.384;2023-04-24T05:44:23;12.80;99.90
18779;DHT22;9518;51.720;14.384;2023-04-24T05:46:51;13.10;99.90
18779;DHT22;9518;51.720;14.384;2023-04-24T05:49:18;13.30;99.90
18779;DHT22;9518;51.720;14.384;2023-04-24T05:51:45;13.50;99.90
18779;DHT22;9518;51.720;14.384;2023-04-24T05:54:12;13.60;99.90
18779;DHT22;9518;51.720;14.384;2023-04-24T05:56:40;13.70;99.90
18779;DHT22;9518;51.720;14.384;2023-04-24T05:59:10;13.70;99.90
18779;DHT22;9518;51.720;14.384;2023-04-24T06:01:37;13.80;99.90
18779;DHT22;9518;51.720;14.384;2023-04-24T06:04:04;14.00;99.90
18779;DHT22;9518;51.720;14.384;2023-04-24T06:06:32;14.20;99.90
18779;DHT22;9518;51.720;14.384;2023-04-24T06:08:59;14.20;99.90
18779;DHT22;9518;51.720;14.384;2023-04-24T06:11:27;14.30;99.90
18779;DHT22;9518;51.720;14.384;2023-04-24T06:13:54;14.40;99.90
18779;DHT22;9518;51.720;14.384;2023-04-24T06:16:23;14.70;99.90
18779;DHT22;9518;51.720;14.384;2023-04-24T06:18:50;15.00;99.90
18779;DHT22;9518;51.720;14.384;2023-04-24T06:21:17;15.40;99.90
18779;DHT22;9518;51.720;14.384;2023-04-24T06:23:44;15.50;99.90
18779;DHT22;9518;51.720;14.384;2023-04-24T06:26:15;15.50;99.90
18779;DHT22;9518;51.720;14.384;2023-04-24T06:28:42;15.40;99.90
18779;DHT22;9518;51.720;14.384;2023-04-24T06:31:09;15.20;99.90
18779;DHT22;9518;51.720;14.384;2023-04-24T06:33:38;15.00;99.90
18779;DHT22;9518;51.720;14.384;2023-04-24T06:36:06;15.10;99.90
18779;DHT22;9518;51.720;14.384;2023-04-24T06:38:33;15.20;99.90
18779;DHT22;9518;51.720;14.384;2023-04-24T06:41:00;15.20;99.90
18779;DHT22;9518;51.720;14.384;2023-04-24T06:43:28;15.30;99.90
18779;DHT22;9518;51.720;14.384;2023-04-24T06:45:56;15.30;99.90
18779;DHT22;9518;51.720;14.384;2023-04-24T06:48:23;15.30;99.90
18779;DHT22;9518;51.720;14.384;2023-04-24T06:50:52;15.20;99.90
18779;DHT22;9518;51.720;14.384;2023-04-24T06:53:19;15.20;99.90
18779;DHT22;9518;51.720;14.384;2023-04-24T06:55:49;15.10;99.90
18779;DHT22;9518;51.720;14.384;2023-04-24T06:58:16;14.90;99.90
18779;DHT22;9518;51.720;14.384;2023-04-24T07:00:43;14.90;99.90
18779;DHT22;9518;51.720;14.384;2023-04-24T07:03:11;15.00;99.90
18779;DHT22;9518;51.720;14.384;2023-04-24T07:05:38;15.20;99.90
18779;DHT22;9518;51.720;14.384;2023-04-24T07:08:07;15.50;99.90
18779;DHT22;9518;51.720;14.384;2023-04-24T07:10:37;15.70;98.90
18779;DHT22;9518;51.720;14.384;2023-04-24T07:13:04;15.70;98.80
18779;DHT22;9518;51.720;14.384;2023-04-24T07:15:32;15.80;97.70
18779;DHT22;9518;51.720;14.384;2023-04-24T07:17:59;15.90;98.60
18779;DHT22;9518;51.720;14.384;2023-04-24T07:20:26;16.00;96.80
18779;DHT22;9518;51.720;14.384;2023-04-24T07:22:54;16.00;96.70
18779;DHT22;9518;51.720;14.384;2023-04-24T07:25:23;16.20;96.20
18779;DHT22;9518;51.720;14.384;2023-04-24T07:27:50;16.40;95.80
18779;DHT22;9518;51.720;14.384;2023-04-24T07:30:17;16.30;95.00
18779;DHT22;9518;51.720;14.384;2023-04-24T07:32:44;16.30;94.30
18779;DHT22;9518;51.720;14.384;2023-04-24T07:35:12;16.40;97.10
18779;DHT22;9518;51.720;14.384;2023-04-24T07:37:39;16.50;95.00
18779;DHT22;9518;51.720;14.384;2023-04-24T07:40:11;16.40;93.90
18779;DHT22;9518;51.720;14.384;2023-04-24T07:42:40;16.20;94.50
18779;DHT22;9518;51.720;14.384;2023-04-24T07:45:07;16.10;95.30
18779;DHT22;9518;51.720;14.384;2023-04-24T07:47:34;16.00;95.30
18779;DHT22;9518;51.720;14.384;2023-04-24T07:50:03;16.10;95.70
18779;DHT22;9518;51.720;14.384;2023-04-24T07:52:30;16.30;94.40
18779;DHT22;9518;51.720;14.384;2023-04-24T07:54:57;16.60;96.20
18779;DHT22;9518;51.720;14.384;2023-04-24T07:57:26;16.80;93.50
18779;DHT22;9518;51.720;14.384;2023-04-24T07:59:55;17.00;94.20
18779;DHT22;9518;51.720;14.384;2023-04-24T08:02:22;17.40;95.00
18779;DHT22;9518;51.720;14.384;2023-04-24T08:04:52;17.50;90.50
18779;DHT22;9518;51.720;14.384;2023-04-24T08:07:20;17.30;90.80
18779;DHT22;9518;51.720;14.384;2023-04-24T08:09:47;17.10;92.20
18779;DHT22;9518;51.720;14.384;2023-04-24T08:12:14;16.90;92.20
18779;DHT22;9518;51.720;14.384;2023-04-24T08:14:41;16.70;91.90
18779;DHT22;9518;51.720;14.384;2023-04-24T08:17:10;16.60;91.90
18779;DHT22;9518;51.720;14.384;2023-04-24T08:19:39;16.70;93.80
18779;DHT22;9518;51.720;14.384;2023-04-24T08:22:08;17.00;93.40
18779;DHT22;9518;51.720;14.384;2023-04-24T08:24:35;17.10;91.60
18779;DHT22;9518;51.720;14.384;2023-04-24T08:27:03;17.20;91.40
18779;DHT22;9518;51.720;14.384;2023-04-24T08:29:32;17.20;91.40
18779;DHT22;9518;51.720;14.384;2023-04-24T08:31:59;17.40;92.00
18779;DHT22;9518;51.720;14.384;2023-04-24T08:34:28;17.30;90.10
18779;DHT22;9518;51.720;14.384;2023-04-24T08:36:55;17.20;89.20
18779;DHT22;9518;51.720;14.384;2023-04-24T08:39:22;17.00;90.40
18779;DHT22;9518;51.720;14.384;2023-04-24T08:41:50;16.90;91.80
18779;DHT22;9518;51.720;14.384;2023-04-24T08:44:19;17.10;91.40
18779;DHT22;9518;51.720;14.384;2023-04-24T08:46:48;17.20;91.30
18779;DHT22;9518;51.720;14.384;2023-04-24T08:49:17;17.40;89.20
18779;DHT22;9518;51.720;14.384;2023-04-24T08:51:46;17.40;86.70
18779;DHT22;9518;51.720;14.384;2023-04-24T08:54:15;17.60;87.50
18779;DHT22;9518;51.720;14.384;2023-04-24T08:56:44;17.70;87.50
18779;DHT22;9518;51.720;14.384;2023-04-24T08:59:12;18.10;85.80
18779;DHT22;9518;51.720;14.384;2023-04-24T09:01:40;18.50;85.30
18779;DHT22;9518;51.720;14.384;2023-04-24T09:04:09;18.60;83.60
18779;DHT22;9518;51.720;14.384;2023-04-24T09:06:37;18.20;84.20
18779;DHT22;9518;51.720;14.384;2023-04-24T09:09:07;18.20;86.70
18779;DHT22;9518;51.720;14.384;2023-04-24T09:11:36;18.20;86.90
18779;DHT22;9518;51.720;14.384;2023-04-24T09:14:04;18.40;84.50
18779;DHT22;9518;51.720;14.384;2023-04-24T09:16:31;18.60;81.30
18779;DHT22;9518;51.720;14.384;2023-04-24T09:18:59;18.70;84.70
18779;DHT22;9518;51.720;14.384;2023-04-24T09:21:31;19.00;85.00
18779;DHT22;9518;51.720;14.384;2023-04-24T09:24:00;19.20;82.30
18779;DHT22;9518;51.720;14.384;2023-04-24T09:26:31;19.40;78.20
18779;DHT22;9518;51.720;14.384;2023-04-24T09:28:59;19.30;79.60
18779;DHT22;9518;51.720;14.384;2023-04-24T09:31:28;19.70;76.40
18779;DHT22;9518;51.720;14.384;2023-04-24T09:33:57;19.90;73.30
18779;DHT22;9518;51.720;14.384;2023-04-24T09:36:28;19.40;71.70
18779;DHT22;9518;51.720;14.384;2023-04-24T09:38:58;19.30;74.20
18779;DHT22;9518;51.720;14.384;2023-04-24T09:41:26;19.20;75.80
18779;DHT22;9518;51.720;14.384;2023-04-24T09:43:56;19.50;72.20
18779;DHT22;9518;51.720;14.384;2023-04-24T09:46:34;19.90;70.80
18779;DHT22;9518;51.720;14.384;2023-04-24T09:49:08;20.10;70.60
18779;DHT22;9518;51.720;14.384;2023-04-24T09:51:37;20.40;67.30
18779;DHT22;9518;51.720;14.384;2023-04-24T09:54:14;20.00;65.60
18779;DHT22;9518;51.720;14.384;2023-04-24T09:56:43;19.20;68.00
18779;DHT22;9518;51.720;14.384;2023-04-24T09:59:14;18.80;71.70
18779;DHT22;9518;51.720;14.384;2023-04-24T10:01:41;18.40;74.80
18779;DHT22;9518;51.720;14.384;2023-04-24T10:04:17;18.10;74.70
18779;DHT22;9518;51.720;14.384;2023-04-24T10:06:45;18.00;77.20
18779;DHT22;9518;51.720;14.384;2023-04-24T10:09:14;17.70;77.50
18779;DHT22;9518;51.720;14.384;2023-04-24T10:11:42;17.60;79.20
18779;DHT22;9518;51.720;14.384;2023-04-24T10:14:15;17.70;80.40
18779;DHT22;9518;51.720;14.384;2023-04-24T10:16:43;18.10;78.10
18779;DHT22;9518;51.720;14.384;2023-04-24T10:19:18;18.70;76.80
18779;DHT22;9518;51.720;14.384;2023-04-24T10:21:46;19.10;75.30
18779;DHT22;9518;51.720;14.384;2023-04-24T10:24:14;19.40;71.60
18779;DHT22;9518;51.720;14.384;2023-04-24T10:26:42;19.50;71.20
18779;DHT22;9518;51.720;14.384;2023-04-24T10:29:11;19.40;69.30
18779;DHT22;9518;51.720;14.384;2023-04-24T10:31:42;18.90;68.70
18779;DHT22;9518;51.720;14.384;2023-04-24T10:34:11;18.40;70.70
18779;DHT22;9518;51.720;14.384;2023-04-24T10:36:44;18.50;70.40
18779;DHT22;9518;51.720;14.384;2023-04-24T10:39:13;18.60;70.70
18779;DHT22;9518;51.720;14.384;2023-04-24T10:41:41;18.50;70.70
18779;DHT22;9518;51.720;14.384;2023-04-24T10:44:09;18.30;72.60
18779;DHT22;9518;51.720;14.384;2023-04-24T10:46:38;18.10;72.70
18779;DHT22;9518;51.720;14.384;2023-04-24T10:49:07;18.00;74.50
18779;DHT22;9518;51.720;14.384;2023-04-24T10:51:45;17.80;74.50
18779;DHT22;9518;51.720;14.384;2023-04-24T10:54:26;17.90;73.70
18779;DHT22;9518;51.720;14.384;2023-04-24T10:59:36;18.10;74.20
18779;DHT22;9518;51.720;14.384;2023-04-24T11:02:03;17.90;72.10
18779;DHT22;9518;51.720;14.384;2023-04-24T11:04:35;17.60;72.10
18779;DHT22;9518;51.720;14.384;2023-04-24T11:07:03;17.40;71.80
18779;DHT22;9518;51.720;14.384;2023-04-24T11:09:31;17.40;73.20
18779;DHT22;9518;51.720;14.384;2023-04-24T11:12:06;17.60;72.80
18779;DHT22;9518;51.720;14.384;2023-04-24T11:14:59;17.70;72.20
18779;DHT22;9518;51.720;14.384;2023-04-24T11:17:30;17.80;73.50
18779;DHT22;9518;51.720;14.384;2023-04-24T11:20:03;18.20;72.00
18779;DHT22;9518;51.720;14.384;2023-04-24T11:22:34;18.60;70.40
18779;DHT22;9518;51.720;14.384;2023-04-24T11:25:02;18.80;69.20
18779;DHT22;9518;51.720;14.384;2023-04-24T11:27:31;18.80;69.10
18779;DHT22;9518;51.720;14.384;2023-04-24T11:30:00;18.80;69.30
18779;DHT22;9518;51.720;14.384;2023-04-24T11:32:29;18.60;69.50
18779;DHT22;9518;51.720;14.384;2023-04-24T11:34:59;18.10;68.70
18779;DHT22;9518;51.720;14.384;2023-04-24T11:37:33;17.90;69.70
18779;DHT22;9518;51.720;14.384;2023-04-24T11:40:00;18.00;72.10
18779;DHT22;9518;51.720;14.384;2023-04-24T11:42:28;17.90;71.00
18779;DHT22;9518;51.720;14.384;2023-04-24T11:44:55;17.90;70.20
18779;DHT22;9518;51.720;14.384;2023-04-24T11:47:29;17.90;69.50
18779;DHT22;9518;51.720;14.384;2023-04-24T11:49:56;17.90;70.90
18779;DHT22;9518;51.720;14.384;2023-04-24T11:52:23;18.00;70.00
18779;DHT22;9518;51.720;14.384;2023-04-24T11:54:52;17.90;69.80
18779;DHT22;9518;51.720;14.384;2023-04-24T11:57:20;17.90;69.70
18779;DHT22;9518;51.720;14.384;2023-04-24T11:59:49;17.70;70.70
18779;DHT22;9518;51.720;14.384;2023-04-24T12:02:23;18.00;69.10
18779;DHT22;9518;51.720;14.384;2023-04-24T12:04:51;18.60;69.60
18779;DHT22;9518;51.720;14.384;2023-04-24T12:07:18;19.30;67.20
18779;DHT22;9518;51.720;14.384;2023-04-24T12:09:46;19.50;66.50
18779;DHT22;9518;51.720;14.384;2023-04-24T12:12:18;20.10;63.80
18779;DHT22;9518;51.720;14.384;2023-04-24T12:14:49;20.40;62.50
18779;DHT22;9518;51.720;14.384;2023-04-24T12:17:16;20.50;62.00
18779;DHT22;9518;51.720;14.384;2023-04-24T12:19:47;20.10;60.80
18779;DHT22;9518;51.720;14.384;2023-04-24T12:22:15;20.20;62.00
18779;DHT22;9518;51.720;14.384;2023-04-24T12:24:58;19.80;59.40
18779;DHT22;9518;51.720;14.384;2023-04-24T12:27:29;20.20;61.80
18779;DHT22;9518;51.720;14.384;2023-04-24T12:29:57;20.40;60.00
18779;DHT22;9518;51.720;14.384;2023-04-24T12:32:25;20.40;61.20
18779;DHT22;9518;51.720;14.384;2023-04-24T12:34:53;19.90;60.40
18779;DHT22;9518;51.720;14.384;2023-04-24T12:37:23;19.50;61.60
18779;DHT22;9518;51.720;14.384;2023-04-24T12:40:05;19.40;63.20
18779;DHT22;9518;51.720;14.384;2023-04-24T12:42:36;19.50;64.80
18779;DHT22;9518;51.720;14.384;2023-04-24T12:45:08;19.90;63.60
18779;DHT22;9518;51.720;14.384;2023-04-24T12:47:38;20.40;60.00
18779;DHT22;9518;51.720;14.384;2023-04-24T12:50:06;20.20;58.90
18779;DHT22;9518;51.720;14.384;2023-04-24T12:52:33;20.20;58.50
18779;DHT22;9518;51.720;14.384;2023-04-24T12:55:01;20.70;60.20
18779;DHT22;9518;51.720;14.384;2023-04-24T12:57:29;21.10;56.80
18779;DHT22;9518;51.720;14.384;2023-04-24T12:59:58;21.70;58.80
18779;DHT22;9518;51.720;14.384;2023-04-24T13:02:27;22.30;55.70
18779;DHT22;9518;51.720;14.384;2023-04-24T13:04:55;21.00;56.00
18779;DHT22;9518;51.720;14.384;2023-04-24T13:07:23;20.00;58.20
18779;DHT22;9518;51.720;14.384;2023-04-24T13:09:51;19.20;60.10
18779;DHT22;9518;51.720;14.384;2023-04-24T13:12:18;18.80;63.10
18779;DHT22;9518;51.720;14.384;2023-04-24T13:14:45;18.70;64.50
18779;DHT22;9518;51.720;14.384;2023-04-24T13:17:13;18.80;63.80
18779;DHT22;9518;51.720;14.384;2023-04-24T13:19:42;18.50;63.50
18779;DHT22;9518;51.720;14.384;2023-04-24T13:22:11;18.50;64.40
18779;DHT22;9518;51.720;14.384;2023-04-24T13:24:39;18.50;64.10
18779;DHT22;9518;51.720;14.384;2023-04-24T13:27:07;18.40;62.50
18779;DHT22;9518;51.720;14.384;2023-04-24T13:29:35;18.50;62.70
18779;DHT22;9518;51.720;14.384;2023-04-24T13:32:02;18.40;63.60
18779;DHT22;9518;51.720;14.384;2023-04-24T13:34:30;18.40;63.30
18779;DHT22;9518;51.720;14.384;2023-04-24T13:36:58;17.90;60.70
18779;DHT22;9518;51.720;14.384;2023-04-24T13:39:26;17.50;63.70
18779;DHT22;9518;51.720;14.384;2023-04-24T13:41:54;16.80;67.20
18779;DHT22;9518;51.720;14.384;2023-04-24T13:44:22;16.70;69.30
18779;DHT22;9518;51.720;14.384;2023-04-24T13:46:52;16.80;68.30
18779;DHT22;9518;51.720;14.384;2023-04-24T13:49:22;17.10;67.80
18779;DHT22;9518;51.720;14.384;2023-04-24T13:51:52;17.50;68.80
18779;DHT22;9518;51.720;14.384;2023-04-24T13:54:19;17.80;67.40
18779;DHT22;9518;51.720;14.384;2023-04-24T13:56:46;17.50;66.40
18779;DHT22;9518;51.720;14.384;2023-04-24T13:59:13;17.20;67.10
18779;DHT22;9518;51.720;14.384;2023-04-24T14:01:40;17.00;70.60
18779;DHT22;9518;51.720;14.384;2023-04-24T14:04:07;16.60;69.00
18779;DHT22;9518;51.720;14.384;2023-04-24T14:06:34;16.30;70.90
18779;DHT22;9518;51.720;14.384;2023-04-24T14:09:03;16.00;71.40
18779;DHT22;9518;51.720;14.384;2023-04-24T14:11:30;15.80;73.70
18779;DHT22;9518;51.720;14.384;2023-04-24T14:13:57;15.80;77.20
18779;DHT22;9518;51.720;14.384;2023-04-24T14:16:24;15.70;77.50
18779;DHT22;9518;51.720;14.384;2023-04-24T14:18:51;15.60;77.60
18779;DHT22;9518;51.720;14.384;2023-04-24T14:21:18;15.90;79.40
18779;DHT22;9518;51.720;14.384;2023-04-24T14:23:45;16.30;78.50
18779;DHT22;9518;51.720;14.384;2023-04-24T14:26:13;16.80;76.60
18779;DHT22;9518;51.720;14.384;2023-04-24T14:28:40;17.10;75.50
18779;DHT22;9518;51.720;14.384;2023-04-24T14:31:09;17.00;76.30
18779;DHT22;9518;51.720;14.384;2023-04-24T14:33:36;17.20;76.10
18779;DHT22;9518;51.720;14.384;2023-04-24T14:36:03;17.30;75.40
18779;DHT22;9518;51.720;14.384;2023-04-24T14:38:31;17.40;74.10
18779;DHT22;9518;51.720;14.384;2023-04-24T14:41:03;17.60;73.50
18779;DHT22;9518;51.720;14.384;2023-04-24T14:43:36;17.70;71.90
18779;DHT22;9518;51.720;14.384;2023-04-24T14:46:03;18.00;73.20
18779;DHT22;9518;51.720;14.384;2023-04-24T14:48:30;18.40;71.10
18779;DHT22;9518;51.720;14.384;2023-04-24T14:50:57;19.00;69.30
18779;DHT22;9518;51.720;14.384;2023-04-24T14:53:24;19.30;68.60
18779;DHT22;9518;51.720;14.384;2023-04-24T14:55:51;19.70;66.80
18779;DHT22;9518;51.720;14.384;2023-04-24T14:58:18;19.80;67.20
18779;DHT22;9518;51.720;14.384;2023-04-24T15:00:47;19.60;63.20
18779;DHT22;9518;51.720;14.384;2023-04-24T15:03:15;19.20;65.10
18779;DHT22;9518;51.720;14.384;2023-04-24T15:05:42;19.30;65.20
18779;DHT22;9518;51.720;14.384;2023-04-24T15:08:10;19.20;65.10
18779;DHT22;9518;51.720;14.384;2023-04-24T15:10:36;19.00;63.20
18779;DHT22;9518;51.720;14.384;2023-04-24T15:13:04;19.10;62.80
18779;DHT22;9518;51.720;14.384;2023-04-24T15:15:31;18.80;56.60
18779;DHT22;9518;51.720;14.384;2023-04-24T15:17:59;18.50;54.60
18779;DHT22;9518;51.720;14.384;2023-04-24T15:20:26;18.00;54.70
18779;DHT22;9518;51.720;14.384;2023-04-24T15:22:53;17.70;55.40
18779;DHT22;9518;51.720;14.384;2023-04-24T15:25:20;17.30;54.50
18779;DHT22;9518;51.720;14.384;2023-04-24T15:27:47;17.10;53.70
18779;DHT22;9518;51.720;14.384;2023-04-24T15:30:14;16.90;54.10
18779;DHT22;9518;51.720;14.384;2023-04-24T15:32:41;16.90;54.40
18779;DHT22;9518;51.720;14.384;2023-04-24T15:35:10;17.30;54.70
18779;DHT22;9518;51.720;14.384;2023-04-24T15:37:38;17.80;52.30
18779;DHT22;9518;51.720;14.384;2023-04-24T15:40:06;18.30;51.50
18779;DHT22;9518;51.720;14.384;2023-04-24T15:42:33;18.70;51.20
18779;DHT22;9518;51.720;14.384;2023-04-24T15:45:00;19.00;49.90